Time;durP1;ratioP1;P1;durP2;ratioP2;P2;SDS_P1;SDS_P2;PMS_P1;PMS_P2;Temp;Humidity;BMP_temperature;BMP_pressure;BME280_temperature;BME280_humidity;BME280_pressure;Samples;Min_cycle;Max_cycle;Signal;HPM_P1;HPM_P2
2021/08/11 00:02:24;;;;;;;77.82;56.85;;;;;;;21.52;81.42;100562.33;1771320;79;21141;-60
2021/08/11 00:04:53;;;;;;;91.42;61.63;;;;;;;21.51;81.49;100565.17;1758532;79;21101;-61
2021/08/11 00:07:21;;;;;;;63.85;47.70;;;;;;;21.46;81.43;100556.89;1763665;79;20987;-60
2021/08/11 00:09:48;;;;;;;57.95;43.75;;;;;;;21.40;81.71;100556.05;1767734;79;21070;-60
2021/08/11 00:12:15;;;;;;;50.25;34.63;;;;;;;21.35;81.87;100558.31;1773014;79;20929;-60
2021/08/11 00:14:43;;;;;;;85.38;62.95;;;;;;;21.30;81.91;100561.41;1758127;79;21122;-60
2021/08/11 00:17:11;;;;;;;59.98;43.02;;;;;;;21.28;82.11;100550.25;1768831;79;21047;-60
2021/08/11 00:19:39;;;;;;;41.20;30.17;;;;;;;21.26;82.21;100549.52;1775281;79;21260;-59
2021/08/11 00:22:06;;;;;;;52.75;38.80;;;;;;;21.24;82.37;100547.42;1776327;79;21491;-59
2021/08/11 00:24:34;;;;;;;31.35;22.65;;;;;;;21.20;82.42;100548.67;1767152;79;20884;-60
2021/08/11 00:27:01;;;;;;;62.78;46.18;;;;;;;21.16;82.37;100552.14;1768815;79;21213;-60
2021/08/11 00:29:28;;;;;;;88.00;66.05;;;;;;;21.11;82.54;100550.30;1770035;79;20997;-60
2021/08/11 00:31:55;;;;;;;75.08;54.77;;;;;;;21.07;82.70;100548.31;1724983;81;21100;-61
2021/08/11 00:34:22;;;;;;;65.78;46.68;;;;;;;21.04;82.75;100549.94;1738073;81;21368;-59
2021/08/11 00:36:51;;;;;;;86.95;63.33;;;;;;;21.02;82.80;100543.75;1723696;81;21059;-59
2021/08/11 00:39:19;;;;;;;85.25;63.00;;;;;;;21.00;82.99;100549.83;1771631;79;22004;-59
2021/08/11 00:41:46;;;;;;;86.63;61.80;;;;;;;20.98;83.06;100547.73;1758247;80;21087;-59
2021/08/11 00:44:16;;;;;;;72.37;53.38;;;;;;;20.98;83.20;100550.45;1756081;79;21070;-59
2021/08/11 00:46:45;;;;;;;80.67;60.55;;;;;;;20.97;83.26;100552.81;1767395;79;21420;-59
2021/08/11 00:49:16;;;;;;;45.50;32.93;;;;;;;20.94;83.21;100551.70;1767647;79;21054;-57
2021/08/11 00:51:46;;;;;;;32.08;16.75;;;;;;;20.91;83.28;100554.17;1763292;79;21468;-59
2021/08/11 00:54:13;;;;;;;14.35;9.35;;;;;;;20.88;83.28;100551.20;1749027;79;21012;-57
2021/08/11 00:56:46;;;;;;;9.50;6.65;;;;;;;20.88;83.36;100554.44;1774069;79;21071;-58
2021/08/11 00:59:14;;;;;;;10.98;6.72;;;;;;;20.85;83.40;100558.27;1776573;79;21569;-58
2021/08/11 01:01:43;;;;;;;11.73;5.95;;;;;;;20.82;83.46;100552.22;1754923;79;21050;-59
2021/08/11 01:04:11;;;;;;;24.85;14.55;;;;;;;20.79;83.56;100553.80;1757323;79;21113;-58
2021/08/11 01:06:38;;;;;;;38.42;28.52;;;;;;;20.76;83.58;100544.86;1767244;79;21424;-58
2021/08/11 01:09:06;;;;;;;47.03;33.10;;;;;;;20.73;83.54;100551.08;1760942;78;21059;-58
2021/08/11 01:11:37;;;;;;;43.28;26.37;;;;;;;20.71;83.68;100555.78;1765463;79;20978;-59
2021/08/11 01:14:06;;;;;;;28.20;21.97;;;;;;;20.69;83.74;100556.41;1771900;79;21047;-59
2021/08/11 01:16:33;;;;;;;55.38;36.95;;;;;;;20.67;83.67;100557.00;1772562;79;21084;-59
2021/08/11 01:19:00;;;;;;;80.00;56.70;;;;;;;20.65;83.70;100556.26;1761910;79;21031;-59
2021/08/11 01:21:54;;;;;;;70.97;50.88;;;;;;;20.62;83.68;100564.20;1773381;79;22477;-59
2021/08/11 01:24:39;;;;;;;64.55;47.13;;;;;;;20.59;83.74;100569.91;1762503;79;20984;-60
2021/08/11 01:27:26;;;;;;;49.80;36.42;;;;;;;20.56;83.87;100570.16;1777338;79;21120;-58
2021/08/11 01:30:22;;;;;;;88.03;62.78;;;;;;;20.55;83.84;100567.03;1763397;79;21945;-58
2021/08/11 01:33:38;;;;;;;39.65;25.90;;;;;;;20.54;83.89;100569.38;1762989;79;21038;-59
2021/08/11 01:36:46;;;;;;;35.43;21.50;;;;;;;20.50;83.92;100566.06;1767892;79;21196;-58
2021/08/11 01:39:46;;;;;;;22.40;15.75;;;;;;;20.49;83.92;100567.05;1769484;79;21115;-58
2021/08/11 01:42:33;;;;;;;26.37;17.05;;;;;;;20.46;83.86;100565.94;1757317;79;21087;-58
2021/08/11 01:45:15;;;;;;;17.35;7.83;;;;;;;20.45;83.88;100573.73;1760684;79;21820;-58
2021/08/11 01:47:52;;;;;;;9.43;5.35;;;;;;;20.42;83.85;100574.84;1770705;79;22460;-59
2021/08/11 01:50:20;;;;;;;10.65;5.30;;;;;;;20.39;83.82;100566.03;1772641;79;21449;-58
2021/08/11 01:52:48;;;;;;;13.45;4.70;;;;;;;20.35;83.99;100568.63;1766443;79;21550;-58
2021/08/11 01:55:16;;;;;;;8.63;5.10;;;;;;;20.31;84.09;100568.88;1753164;79;21510;-58
2021/08/11 01:57:49;;;;;;;21.55;15.90;;;;;;;20.28;84.09;100573.69;1762478;79;21764;-58
2021/08/11 02:00:20;;;;;;;32.38;23.30;;;;;;;20.23;84.09;100570.00;1735218;79;21079;-58
2021/08/11 02:02:47;;;;;;;45.28;35.28;;;;;;;20.22;83.91;100573.67;1744957;79;21066;-58
2021/08/11 02:05:16;;;;;;;62.98;39.63;;;;;;;20.21;83.85;100577.38;1760837;79;21036;-59
2021/08/11 02:07:44;;;;;;;55.92;41.83;;;;;;;20.20;83.78;100575.66;1766149;79;20960;-59
2021/08/11 02:10:14;;;;;;;60.12;42.10;;;;;;;20.20;83.81;100578.38;1760452;79;21432;-59
2021/08/11 02:12:41;;;;;;;66.50;44.93;;;;;;;20.20;83.97;100575.66;1757594;79;21047;-59
2021/08/11 02:15:09;;;;;;;60.78;41.28;;;;;;;20.22;83.83;100583.71;1758079;79;21568;-59
2021/08/11 02:17:41;;;;;;;35.75;24.95;;;;;;;20.19;83.82;100584.80;1755808;79;20980;-58
2021/08/11 02:20:15;;;;;;;25.23;17.17;;;;;;;20.18;83.79;100580.35;1761781;79;21393;-61
2021/08/11 02:22:42;;;;;;;31.73;20.17;;;;;;;20.14;83.76;100587.91;1757085;79;21352;-62
2021/08/11 02:25:12;;;;;;;23.02;15.30;;;;;;;20.12;83.84;100578.12;1770496;79;21067;-62
2021/08/11 02:27:50;;;;;;;24.35;18.42;;;;;;;20.09;83.85;100575.64;1753822;79;21040;-61
2021/08/11 02:30:21;;;;;;;43.42;30.70;;;;;;;20.06;83.70;100579.46;1764420;79;21024;-60
2021/08/11 02:32:55;;;;;;;62.98;46.83;;;;;;;20.01;83.72;100588.00;1765300;79;21452;-60
2021/08/11 02:35:31;;;;;;;58.38;43.78;;;;;;;19.98;83.76;100597.73;1762074;79;21831;-60
2021/08/11 02:38:11;;;;;;;51.02;37.53;;;;;;;19.96;83.71;100597.50;1767501;79;21042;-62
2021/08/11 02:41:04;;;;;;;37.88;27.32;;;;;;;19.94;83.71;100594.89;1749810;81;21044;-61
2021/08/11 02:43:51;;;;;;;63.75;44.40;;;;;;;19.90;83.75;100596.08;1755228;80;21405;-60
2021/08/11 02:46:26;;;;;;;49.20;37.28;;;;;;;19.88;83.85;100592.61;1757235;81;21526;-60
2021/08/11 02:48:59;;;;;;;29.42;19.82;;;;;;;19.87;83.75;100597.69;1759444;79;21900;-61
2021/08/11 02:51:30;;;;;;;19.82;10.23;;;;;;;19.85;83.74;100590.98;1772311;79;20963;-58
2021/08/11 02:54:02;;;;;;;18.60;13.78;;;;;;;19.85;83.63;100595.58;1766356;79;21049;-60
2021/08/11 02:56:30;;;;;;;20.97;13.50;;;;;;;19.83;83.56;100594.83;1763190;79;21469;-61
2021/08/11 02:58:58;;;;;;;12.15;8.03;;;;;;;19.80;83.56;100596.43;1765890;79;21071;-61
2021/08/11 03:01:29;;;;;;;18.05;11.83;;;;;;;19.79;83.67;100601.50;1763934;79;21298;-61
2021/08/11 03:03:59;;;;;;;17.15;10.80;;;;;;;19.79;83.63;100592.83;1775947;79;21079;-60
2021/08/11 03:06:26;;;;;;;16.82;10.30;;;;;;;19.80;83.62;100596.43;1764474;79;21462;-60
2021/08/11 03:08:55;;;;;;;15.10;9.80;;;;;;;19.80;83.33;100586.91;1777379;79;21078;-61
2021/08/11 03:11:23;;;;;;;21.57;15.18;;;;;;;19.76;83.05;100598.00;1751886;78;21081;-60
2021/08/11 03:13:51;;;;;;;18.98;12.68;;;;;;;19.73;82.94;100587.36;1759843;79;21131;-60
2021/08/11 03:16:18;;;;;;;17.37;10.35;;;;;;;19.72;82.95;100588.34;1771916;79;21488;-58
2021/08/11 03:18:49;;;;;;;18.00;11.45;;;;;;;19.74;82.79;100591.81;1768494;79;21028;-58
2021/08/11 03:21:16;;;;;;;14.38;8.50;;;;;;;19.78;82.57;100597.01;1751037;79;21062;-58
2021/08/11 03:23:44;;;;;;;17.62;11.50;;;;;;;19.80;82.42;100596.43;1757687;79;20976;-58
2021/08/11 03:26:11;;;;;;;15.28;7.95;;;;;;;19.84;82.25;100600.13;1761876;79;21171;-59
2021/08/11 03:28:39;;;;;;;16.73;8.55;;;;;;;19.88;81.95;100590.75;1768387;79;21343;-58
2021/08/11 03:31:06;;;;;;;9.98;6.87;;;;;;;19.94;81.58;100594.03;1765735;79;21043;-58
2021/08/11 03:33:34;;;;;;;12.43;7.65;;;;;;;19.97;81.40;100594.64;1764933;79;21444;-57
2021/08/11 03:36:03;;;;;;;10.08;6.20;;;;;;;19.97;81.12;100596.52;1759260;79;21062;-58
2021/08/11 03:38:30;;;;;;;9.28;7.22;;;;;;;20.00;80.81;100593.05;1775597;79;21555;-58
2021/08/11 03:40:57;;;;;;;10.20;5.78;;;;;;;20.05;80.59;100594.05;1778657;79;21050;-58
2021/08/11 03:43:24;;;;;;;8.00;5.00;;;;;;;20.14;80.32;100605.60;1767141;79;21031;-58
2021/08/11 03:45:52;;;;;;;9.73;5.10;;;;;;;20.18;79.89;100596.69;1764959;79;21093;-58
2021/08/11 03:48:20;;;;;;;11.70;5.53;;;;;;;20.23;79.65;100595.85;1755588;79;21015;-59
2021/08/11 03:50:49;;;;;;;16.67;6.12;;;;;;;20.27;79.25;100604.14;1773735;79;21127;-59
2021/08/11 03:53:16;;;;;;;9.95;6.37;;;;;;;20.33;79.08;100600.94;1774970;79;21003;-59
2021/08/11 03:55:44;;;;;;;12.55;5.33;;;;;;;20.39;78.52;100604.15;1770655;79;21020;-58
2021/08/11 03:58:11;;;;;;;13.20;4.40;;;;;;;20.42;78.45;100600.70;1756967;79;21022;-58
2021/08/11 04:00:38;;;;;;;12.37;4.75;;;;;;;20.49;78.19;100598.36;1764710;79;21561;-59
2021/08/11 04:03:05;;;;;;;10.20;5.40;;;;;;;20.58;77.82;100598.12;1759455;79;21171;-59
2021/08/11 04:05:32;;;;;;;11.43;5.60;;;;;;;20.65;77.24;100587.11;1763740;79;21092;-59
2021/08/11 04:07:59;;;;;;;13.65;5.00;;;;;;;20.71;76.83;100589.83;1775626;79;21069;-60
2021/08/11 04:10:25;;;;;;;9.35;5.58;;;;;;;20.76;76.86;100583.52;1767503;79;20979;-58
2021/08/11 04:12:53;;;;;;;29.75;7.87;;;;;;;20.85;76.31;100591.47;1756230;79;21468;-59
2021/08/11 04:15:19;;;;;;;14.93;6.35;;;;;;;20.90;75.88;100583.78;1762647;79;21048;-59
2021/08/11 04:17:46;;;;;;;20.25;10.45;;;;;;;20.97;75.87;100584.16;1772097;79;20972;-59
2021/08/11 04:20:14;;;;;;;19.57;10.10;;;;;;;21.07;75.53;100586.99;1754488;79;20943;-62
2021/08/11 04:22:40;;;;;;;19.50;11.48;;;;;;;21.13;75.28;100588.72;1770174;79;20925;-60
2021/08/11 04:25:08;;;;;;;19.60;12.95;;;;;;;21.22;75.13;100587.58;1765059;79;21095;-61
2021/08/11 04:27:35;;;;;;;12.78;7.35;;;;;;;21.32;74.76;100583.08;1767268;79;21096;-61
2021/08/11 04:30:03;;;;;;;21.35;8.88;;;;;;;21.45;74.03;100586.52;1765510;79;20958;-61
2021/08/11 04:32:32;;;;;;;18.82;12.28;;;;;;;21.53;73.86;100597.27;1760673;79;21090;-61
2021/08/11 04:34:59;;;;;;;22.85;7.92;;;;;;;21.61;73.62;100598.88;1760226;79;21024;-60
2021/08/11 04:37:25;;;;;;;14.40;5.83;;;;;;;21.69;73.57;100595.54;1775352;79;20991;-60
2021/08/11 04:39:52;;;;;;;11.18;5.17;;;;;;;21.82;73.08;100597.57;1765390;79;21115;-60
2021/08/11 04:42:20;;;;;;;12.90;6.05;;;;;;;21.95;72.92;100603.36;1761335;79;21079;-60
2021/08/11 04:44:46;;;;;;;10.65;6.05;;;;;;;22.12;72.06;100608.23;1761103;79;21079;-61
2021/08/11 04:47:13;;;;;;;9.85;6.40;;;;;;;22.26;71.11;100598.84;1757698;79;21267;-61
2021/08/11 04:49:40;;;;;;;32.63;17.82;;;;;;;22.37;70.83;100602.00;1763817;79;20927;-60
2021/08/11 04:52:06;;;;;;;17.07;9.98;;;;;;;22.47;70.22;100597.98;1765316;79;21109;-60
2021/08/11 04:54:33;;;;;;;27.22;18.32;;;;;;;22.54;69.69;100601.90;1772280;79;20915;-61
2021/08/11 04:57:00;;;;;;;29.05;20.75;;;;;;;22.59;69.03;100599.62;1762650;79;21051;-61
2021/08/11 04:59:26;;;;;;;22.05;15.10;;;;;;;22.58;69.25;100596.52;1767908;79;21421;-60
2021/08/11 05:01:53;;;;;;;21.77;16.55;;;;;;;22.66;69.05;100591.75;1755969;79;21650;-62
2021/08/11 05:04:19;;;;;;;27.02;20.80;;;;;;;22.79;68.62;100594.25;1762856;79;21513;-60
2021/08/11 05:06:46;;;;;;;17.65;11.97;;;;;;;22.94;68.50;100594.73;1773967;79;21382;-61
2021/08/11 05:09:14;;;;;;;41.58;33.55;;;;;;;23.07;67.83;100604.05;1759595;79;21157;-61
2021/08/11 05:11:41;;;;;;;28.20;20.27;;;;;;;23.20;67.13;100602.95;1765417;79;21051;-61
2021/08/11 05:14:08;;;;;;;14.98;8.08;;;;;;;23.31;66.90;100609.69;1779476;79;21043;-61
2021/08/11 05:16:36;;;;;;;26.12;16.07;;;;;;;23.39;66.24;100608.50;1767021;79;21957;-61
2021/08/11 05:19:03;;;;;;;25.23;18.10;;;;;;;23.45;66.06;100620.23;1762741;79;21028;-61
2021/08/11 05:21:32;;;;;;;39.27;29.85;;;;;;;23.48;65.06;100620.95;1757866;79;21068;-61
2021/08/11 05:23:58;;;;;;;28.23;19.30;;;;;;;23.54;65.15;100625.85;1777803;79;21065;-61
2021/08/11 05:26:25;;;;;;;17.02;9.13;;;;;;;23.68;65.28;100619.13;1774863;79;20963;-61
2021/08/11 05:28:57;;;;;;;18.32;14.90;;;;;;;23.91;64.86;100624.31;1760492;79;21726;-61
2021/08/11 05:31:24;;;;;;;52.88;38.02;;;;;;;24.10;64.38;100632.56;1764965;79;21051;-60
2021/08/11 05:33:50;;;;;;;17.23;10.30;;;;;;;24.22;63.51;100629.16;1756387;79;21047;-61
2021/08/11 05:36:17;;;;;;;14.93;9.38;;;;;;;24.28;63.03;100629.94;1763671;79;21003;-61
2021/08/11 05:38:44;;;;;;;27.85;20.55;;;;;;;24.36;62.63;100628.33;1765084;79;21055;-61
2021/08/11 05:41:11;;;;;;;45.23;30.52;;;;;;;24.43;62.50;100625.38;1764990;79;21964;-61
2021/08/11 05:43:37;;;;;;;29.42;20.75;;;;;;;24.54;62.43;100614.22;1769478;79;21020;-61
2021/08/11 05:46:05;;;;;;;44.63;30.08;;;;;;;24.69;61.62;100620.09;1780922;79;21037;-62
2021/08/11 05:48:32;;;;;;;40.88;30.08;;;;;;;24.74;61.06;100621.02;1767372;79;21011;-62
2021/08/11 05:50:59;;;;;;;20.80;15.53;;;;;;;24.72;61.70;100612.08;1775025;80;21130;-61
2021/08/11 05:53:26;;;;;;;19.27;11.80;;;;;;;24.85;62.03;100613.98;1762623;80;21113;-64
2021/08/11 05:55:53;;;;;;;15.98;8.45;;;;;;;25.05;61.05;100612.53;1768241;79;21035;-62
2021/08/11 05:58:19;;;;;;;28.80;18.98;;;;;;;25.23;61.05;100608.98;1768633;79;21536;-63
2021/08/11 06:00:46;;;;;;;20.90;13.03;;;;;;;25.44;60.37;100616.95;1767451;80;21028;-63
2021/08/11 06:03:13;;;;;;;14.55;7.72;;;;;;;25.62;59.81;100621.11;1756953;80;20972;-61
2021/08/11 06:05:48;;;;;;;21.62;13.18;;;;;;;25.77;58.87;100621.95;1747309;81;21856;-64
2021/08/11 06:08:14;;;;;;;27.60;18.37;;;;;;;25.85;58.44;100622.86;1743474;81;20938;-64
2021/08/11 06:10:42;;;;;;;28.32;16.17;;;;;;;25.90;57.98;100627.89;1746511;80;21052;-63
2021/08/11 06:13:09;;;;;;;14.95;10.80;;;;;;;25.92;57.72;100630.50;1744963;81;21471;-64
2021/08/11 06:15:36;;;;;;;22.42;14.33;;;;;;;25.92;57.44;100620.88;1754394;81;21028;-62
2021/08/11 06:18:04;;;;;;;11.60;7.30;;;;;;;25.94;57.87;100620.21;1747857;81;21121;-66
2021/08/11 06:20:31;;;;;;;23.38;15.48;;;;;;;26.08;57.45;100618.78;1743426;81;20978;-62
2021/08/11 06:22:58;;;;;;;33.50;20.40;;;;;;;26.18;57.40;100607.20;1779695;79;21020;-63
2021/08/11 06:25:25;;;;;;;19.52;15.18;;;;;;;26.30;57.30;100618.30;1779681;79;21062;-62
2021/08/11 06:27:52;;;;;;;27.67;18.75;;;;;;;26.46;57.07;100616.70;1764704;79;21116;-64
2021/08/11 06:30:19;;;;;;;25.25;13.80;;;;;;;26.55;56.69;100603.88;1771204;79;21164;-63
2021/08/11 06:32:46;;;;;;;29.07;20.23;;;;;;;26.59;56.23;100611.61;1775276;79;21019;-63
2021/08/11 06:35:15;;;;;;;31.68;16.23;;;;;;;26.57;56.33;100605.42;1742861;81;21600;-64
2021/08/11 06:37:49;;;;;;;22.27;15.13;;;;;;;26.58;56.75;100587.90;1738570;81;21670;-63
2021/08/11 06:40:17;;;;;;;18.48;12.20;;;;;;;26.67;56.25;100602.55;1737995;81;21060;-64
2021/08/11 06:42:45;;;;;;;29.02;23.90;;;;;;;26.69;56.21;100600.50;1759828;80;21125;-62
2021/08/11 06:45:13;;;;;;;23.40;16.90;;;;;;;26.73;56.37;100592.80;1769037;79;21133;-61
2021/08/11 06:47:44;;;;;;;38.85;26.37;;;;;;;26.77;55.64;100596.09;1768873;79;21576;-62
2021/08/11 06:50:14;;;;;;;25.72;16.67;;;;;;;26.82;55.93;100595.92;1772916;79;21024;-63
2021/08/11 06:52:42;;;;;;;14.93;11.85;;;;;;;26.94;55.99;100599.81;1767652;80;21183;-62
2021/08/11 06:55:16;;;;;;;15.83;6.10;;;;;;;27.05;55.58;100603.63;1769872;79;21630;-62
2021/08/11 06:57:47;;;;;;;16.07;9.55;;;;;;;27.14;55.34;100592.14;1765399;79;21046;-61
2021/08/11 07:00:16;;;;;;;9.88;5.92;;;;;;;27.28;55.55;100598.88;1775719;79;22144;-61
2021/08/11 07:02:43;;;;;;;11.73;5.22;;;;;;;27.42;54.93;100591.36;1773474;79;21021;-62
2021/08/11 07:05:12;;;;;;;11.18;4.90;;;;;;;27.49;54.73;100595.69;1746068;79;21114;-60
2021/08/11 07:07:39;;;;;;;8.50;5.12;;;;;;;27.53;54.52;100587.99;1772713;79;21073;-60
2021/08/11 07:10:14;;;;;;;10.53;4.47;;;;;;;27.53;54.43;100582.48;1773839;79;21558;-58
2021/08/11 07:12:42;;;;;;;13.60;4.30;;;;;;;27.55;54.28;100594.19;1767709;79;21563;-61
2021/08/11 07:15:10;;;;;;;10.95;3.90;;;;;;;27.58;54.28;100588.33;1770521;79;21457;-60
2021/08/11 07:17:39;;;;;;;10.25;3.77;;;;;;;27.61;53.73;100593.50;1781556;79;21079;-59
2021/08/11 07:20:11;;;;;;;15.32;4.22;;;;;;;27.60;53.47;100622.06;1776358;79;21241;-59
2021/08/11 07:22:38;;;;;;;7.50;4.80;;;;;;;27.55;53.81;100580.42;1774482;79;21045;-61
2021/08/11 07:25:06;;;;;;;9.78;4.17;;;;;;;27.55;53.78;100576.29;1776248;79;21065;-60
2021/08/11 07:27:33;;;;;;;11.53;3.62;;;;;;;27.56;53.76;100576.63;1776784;79;21065;-60
2021/08/11 07:30:01;;;;;;;7.25;4.17;;;;;;;27.59;53.41;100599.69;1769439;79;21095;-61
2021/08/11 07:32:28;;;;;;;7.67;4.17;;;;;;;27.62;53.65;100584.70;1773286;79;21474;-60
2021/08/11 07:34:55;;;;;;;5.00;3.37;;;;;;;27.64;53.35;100579.38;1773279;79;21076;-60
2021/08/11 07:37:22;;;;;;;11.40;4.05;;;;;;;27.64;52.76;100587.64;1771671;79;21043;-59
2021/08/11 07:39:49;;;;;;;15.63;12.10;;;;;;;27.64;52.99;100569.75;1772647;79;21105;-58
2021/08/11 07:42:24;;;;;;;7.47;4.22;;;;;;;27.71;53.32;100569.93;1777414;79;21280;-59
2021/08/11 07:44:51;;;;;;;6.17;3.77;;;;;;;27.78;52.54;100578.38;1779585;79;21111;-60
2021/08/11 07:47:19;;;;;;;9.70;4.28;;;;;;;27.76;51.56;100571.65;1769248;79;21803;-59
2021/08/11 07:49:45;;;;;;;8.03;4.50;;;;;;;27.81;51.70;100568.39;1773034;79;21080;-59
2021/08/11 07:52:12;;;;;;;10.35;4.35;;;;;;;27.89;50.87;100565.63;1771181;79;21066;-60
2021/08/11 07:54:39;;;;;;;15.95;9.28;;;;;;;27.90;50.95;100574.23;1771327;79;21123;-57
2021/08/11 07:57:06;;;;;;;18.25;11.50;;;;;;;27.86;49.99;100572.86;1779419;79;21090;-56
2021/08/11 07:59:34;;;;;;;17.07;11.75;;;;;;;27.81;50.03;100582.16;1776945;79;21018;-56
2021/08/11 08:02:01;;;;;;;17.87;12.00;;;;;;;27.83;50.11;100569.92;1776004;79;21079;-58
2021/08/11 08:04:28;;;;;;;16.93;9.58;;;;;;;27.87;48.90;100581.47;1781783;79;21040;-58
2021/08/11 08:06:55;;;;;;;15.43;6.60;;;;;;;27.89;49.40;100584.91;1776609;79;21152;-57
2021/08/11 08:09:22;;;;;;;16.82;7.37;;;;;;;27.85;48.56;100565.63;1776972;79;21025;-57
2021/08/11 08:11:48;;;;;;;44.35;29.35;;;;;;;27.89;49.43;100561.48;1769646;79;21071;-58
2021/08/11 08:14:15;;;;;;;26.17;15.88;;;;;;;27.97;47.93;100562.88;1772576;79;20981;-58
2021/08/11 08:16:42;;;;;;;11.70;6.60;;;;;;;28.03;47.96;100584.73;1769439;79;20972;-57
2021/08/11 08:19:11;;;;;;;8.70;5.87;;;;;;;28.09;47.20;100566.14;1770178;79;21710;-57
2021/08/11 08:21:38;;;;;;;16.45;6.85;;;;;;;28.09;46.59;100547.36;1766984;79;21257;-58
2021/08/11 08:24:05;;;;;;;19.67;9.80;;;;;;;28.06;46.54;100544.95;1780480;79;21061;-59
2021/08/11 08:26:32;;;;;;;23.83;12.65;;;;;;;28.10;46.01;100549.95;1778792;79;21102;-57
2021/08/11 08:29:01;;;;;;;26.68;6.90;;;;;;;28.18;45.63;100550.47;1773151;79;21101;-57
2021/08/11 08:31:29;;;;;;;11.97;6.10;;;;;;;28.27;43.25;100553.56;1774808;79;21133;-58
2021/08/11 08:33:57;;;;;;;29.02;13.62;;;;;;;28.40;41.45;100548.01;1781987;79;21322;-57
2021/08/11 08:36:24;;;;;;;13.03;6.35;;;;;;;28.48;41.86;100538.36;1779393;79;21543;-58
2021/08/11 08:38:51;;;;;;;23.22;8.50;;;;;;;28.55;41.12;100557.28;1777196;79;21086;-60
2021/08/11 08:41:18;;;;;;;10.23;5.70;;;;;;;28.56;38.96;100583.81;1777245;79;21022;-59
2021/08/11 08:43:44;;;;;;;20.57;13.58;;;;;;;28.52;38.96;100535.58;1775386;79;21504;-61
2021/08/11 08:46:12;;;;;;;28.10;17.82;;;;;;;28.55;38.88;100528.33;1775514;79;21055;-60
2021/08/11 08:48:40;;;;;;;10.50;6.92;;;;;;;28.64;39.04;100513.15;1771622;78;21046;-61
2021/08/11 08:51:11;;;;;;;8.30;3.27;;;;;;;28.71;38.59;100548.62;1768163;79;21089;-58
2021/08/11 08:53:41;;;;;;;15.15;8.68;;;;;;;28.73;38.40;100532.21;1766501;79;21060;-58
2021/08/11 08:56:08;;;;;;;5.65;3.12;;;;;;;28.75;38.62;100529.29;1772777;79;21107;-58
2021/08/11 08:58:35;;;;;;;3.75;2.65;;;;;;;28.72;38.45;100602.73;1759901;80;21505;-59
2021/08/11 09:01:02;;;;;;;7.45;3.12;;;;;;;28.68;38.09;100560.01;1744252;80;21140;-58
2021/08/11 09:03:29;;;;;;;12.15;7.78;;;;;;;28.60;38.76;100524.51;1753173;79;21460;-58
2021/08/11 09:05:56;;;;;;;7.12;3.37;;;;;;;28.64;39.08;100526.94;1754043;79;21128;-59
2021/08/11 09:08:23;;;;;;;5.40;2.55;;;;;;;28.78;38.82;100515.13;1755897;79;21120;-58
2021/08/11 09:10:50;;;;;;;5.80;3.00;;;;;;;28.89;38.55;100520.80;1749462;79;21117;-58
2021/08/11 09:13:20;;;;;;;21.25;15.60;;;;;;;28.95;38.44;100509.57;1757617;79;21748;-59
2021/08/11 09:15:54;;;;;;;21.12;15.25;;;;;;;29.02;37.20;100524.35;1756941;79;22248;-59
2021/08/11 09:18:29;;;;;;;4.55;3.02;;;;;;;29.08;36.17;100542.97;1754773;79;20911;-59
2021/08/11 09:21:09;;;;;;;11.70;7.90;;;;;;;29.07;36.06;100527.45;1758292;79;21027;-59
2021/08/11 09:23:44;;;;;;;7.28;3.50;;;;;;;29.04;35.19;100523.65;1753793;79;21839;-59
2021/08/11 09:26:16;;;;;;;24.27;16.15;;;;;;;29.04;34.75;100520.89;1753805;79;21067;-60
2021/08/11 09:28:44;;;;;;;16.07;11.25;;;;;;;29.06;35.47;100526.24;1760878;79;21072;-58
2021/08/11 09:31:30;;;;;;;8.50;4.12;;;;;;;29.03;35.71;100526.06;1763500;79;21130;-58
2021/08/11 09:34:00;;;;;;;8.73;6.20;;;;;;;29.02;35.02;100521.59;1762179;79;21026;-60
2021/08/11 09:36:27;;;;;;;8.13;6.47;;;;;;;28.96;33.59;100525.09;1760594;79;21204;-60
2021/08/11 09:39:03;;;;;;;7.55;4.42;;;;;;;28.97;35.23;100519.40;1761726;79;21116;-58
2021/08/11 09:41:33;;;;;;;15.23;11.53;;;;;;;28.95;35.32;100518.69;1762670;79;21543;-58
2021/08/11 09:44:11;;;;;;;11.03;4.95;;;;;;;28.92;35.33;100509.94;1652381;79;21038;-58
2021/08/11 09:46:39;;;;;;;11.78;8.38;;;;;;;28.97;35.33;100497.33;1759919;79;20869;-59
2021/08/11 09:49:15;;;;;;;16.07;10.82;;;;;;;29.10;34.51;100517.42;1715716;81;21712;-59
2021/08/11 09:52:02;;;;;;;6.62;4.17;;;;;;;29.12;34.35;100520.86;1758664;79;21047;-58
2021/08/11 09:54:32;;;;;;;12.35;11.08;;;;;;;29.12;34.48;100529.14;1722767;81;21052;-59
2021/08/11 09:56:58;;;;;;;9.45;3.40;;;;;;;29.10;34.49;100517.93;1750121;79;20880;-59
2021/08/11 09:59:26;;;;;;;6.62;2.90;;;;;;;29.13;34.79;100526.72;1762021;79;21798;-59
2021/08/11 10:02:15;;;;;;;7.40;6.03;;;;;;;29.18;34.71;100541.87;1755676;79;21856;-59
2021/08/11 10:04:41;;;;;;;14.83;8.45;;;;;;;29.12;34.61;100522.23;1757008;79;20936;-59
2021/08/11 10:07:08;;;;;;;4.28;2.40;;;;;;;29.14;35.07;100520.16;1759145;79;21067;-59
2021/08/11 10:09:35;;;;;;;5.50;2.90;;;;;;;29.20;33.94;100539.78;1760886;79;21065;-60
2021/08/11 10:12:03;;;;;;;5.55;3.00;;;;;;;29.24;34.32;100530.96;1764438;79;21623;-59
2021/08/11 10:14:33;;;;;;;6.87;2.83;;;;;;;29.29;34.33;100549.72;1758644;79;21051;-58
2021/08/11 10:17:00;;;;;;;5.00;3.15;;;;;;;29.35;34.52;100531.06;1760337;80;21364;-59
2021/08/11 10:19:29;;;;;;;18.37;3.72;;;;;;;29.42;34.86;100527.09;1757929;79;21141;-59
2021/08/11 10:22:05;;;;;;;10.85;2.80;;;;;;;29.48;34.95;100542.91;1764642;79;21568;-59
2021/08/11 10:24:33;;;;;;;3.60;2.40;;;;;;;29.57;34.68;100534.05;1759779;79;21055;-59
2021/08/11 10:27:00;;;;;;;4.00;2.50;;;;;;;29.63;33.14;100540.20;1755756;79;21635;-59
2021/08/11 10:29:28;;;;;;;7.83;2.77;;;;;;;29.58;33.39;100540.75;1758950;80;21024;-60
2021/08/11 10:31:55;;;;;;;6.70;2.98;;;;;;;29.53;33.63;100540.45;1768832;79;21666;-60
2021/08/11 10:34:22;;;;;;;9.28;2.70;;;;;;;29.47;33.87;100538.94;1776060;80;21071;-59
2021/08/11 10:36:49;;;;;;;5.78;2.98;;;;;;;29.45;33.85;100539.98;1770450;79;21002;-60
2021/08/11 10:39:17;;;;;;;9.88;8.88;;;;;;;29.44;33.36;100520.31;1768599;79;21804;-58
2021/08/11 10:41:44;;;;;;;6.42;2.40;;;;;;;29.44;33.72;100523.62;1739843;81;21061;-60
2021/08/11 10:44:22;;;;;;;6.03;3.20;;;;;;;29.48;33.81;100529.11;1736784;81;21666;-62
2021/08/11 10:46:57;;;;;;;4.28;2.37;;;;;;;29.49;34.49;100528.56;1733761;81;21054;-59
2021/08/11 10:49:28;;;;;;;22.73;4.17;;;;;;;29.52;33.43;100522.70;1732270;81;22357;-59
2021/08/11 10:52:05;;;;;;;9.35;3.12;;;;;;;29.55;33.29;100531.45;1734421;81;21627;-59
2021/08/11 10:55:04;;;;;;;10.90;2.77;;;;;;;29.61;33.88;100513.30;1762952;80;21083;-58
2021/08/11 10:57:42;;;;;;;10.55;2.65;;;;;;;29.62;32.84;100536.23;1768251;79;21576;-59
2021/08/11 11:00:28;;;;;;;10.28;3.00;;;;;;;29.58;33.27;100528.86;1769514;79;21758;-59
2021/08/11 11:02:55;;;;;;;8.40;4.20;;;;;;;29.65;33.46;100511.87;1766434;79;21054;-58
2021/08/11 11:05:31;;;;;;;10.23;3.40;;;;;;;29.67;32.71;100518.06;1766084;79;22300;-58
2021/08/11 11:08:15;;;;;;;14.28;2.80;;;;;;;29.62;32.63;100527.44;1766110;79;21072;-58
2021/08/11 11:10:45;;;;;;;7.25;2.40;;;;;;;29.56;32.43;100522.66;1765965;80;21106;-58
2021/08/11 11:13:31;;;;;;;6.35;3.17;;;;;;;29.53;32.16;100517.52;1765451;79;21684;-59
2021/08/11 11:15:59;;;;;;;5.92;3.08;;;;;;;29.50;31.73;100513.71;1765575;80;21105;-57
2021/08/11 11:18:27;;;;;;;9.08;3.52;;;;;;;29.52;32.10;100533.20;1769229;79;21203;-58
2021/08/11 11:21:03;;;;;;;6.17;2.95;;;;;;;29.59;32.49;100525.05;1772845;79;21030;-58
2021/08/11 11:23:43;;;;;;;8.15;5.83;;;;;;;29.57;32.05;100529.36;1772521;79;21551;-59
2021/08/11 11:26:14;;;;;;;3.77;2.62;;;;;;;29.56;31.94;100511.08;1776312;79;21074;-61
2021/08/11 11:29:09;;;;;;;6.70;2.40;;;;;;;29.59;31.65;100517.61;1773536;80;20994;-59